sensor_id;sensor_type;location;lat;lon;timestamp;temperature;humidity
48264;DHT22;34086;51.076;13.722;2023-03-26T00:00:25;8.80;99.90
48264;DHT22;34086;51.076;13.722;2023-03-26T00:01:26;8.70;99.90
48264;DHT22;34086;51.076;13.722;2023-03-26T00:02:28;8.70;99.90
48264;DHT22;34086;51.076;13.722;2023-03-26T00:03:29;8.70;99.90
48264;DHT22;34086;51.076;13.722;2023-03-26T00:04:31;8.70;99.90
48264;DHT22;34086;51.076;13.722;2023-03-26T00:05:33;8.70;99.90
48264;DHT22;34086;51.076;13.722;2023-03-26T00:06:35;8.60;99.90
48264;DHT22;34086;51.076;13.722;2023-03-26T00:07:38;8.60;99.90
48264;DHT22;34086;51.076;13.722;2023-03-26T00:08:40;8.60;99.90
48264;DHT22;34086;51.076;13.722;2023-03-26T00:09:41;8.60;99.90
48264;DHT22;34086;51.076;13.722;2023-03-26T00:10:42;8.70;99.90
48264;DHT22;34086;51.076;13.722;2023-03-26T00:11:43;8.70;99.90
48264;DHT22;34086;51.076;13.722;2023-03-26T00:12:45;8.70;99.90
48264;DHT22;34086;51.076;13.722;2023-03-26T00:13:46;8.70;99.90
48264;DHT22;34086;51.076;13.722;2023-03-26T00:14:47;8.70;99.90
48264;DHT22;34086;51.076;13.722;2023-03-26T00:15:48;8.70;99.90
48264;DHT22;34086;51.076;13.722;2023-03-26T00:16:48;8.70;99.90
48264;DHT22;34086;51.076;13.722;2023-03-26T00:17:49;8.70;99.90
48264;DHT22;34086;51.076;13.722;2023-03-26T00:18:49;8.70;99.90
48264;DHT22;34086;51.076;13.722;2023-03-26T00:19:51;8.70;99.90
48264;DHT22;34086;51.076;13.722;2023-03-26T00:20:52;8.80;99.90
48264;DHT22;34086;51.076;13.722;2023-03-26T00:21:53;8.80;99.90
48264;DHT22;34086;51.076;13.722;2023-03-26T00:22:57;8.80;99.90
48264;DHT22;34086;51.076;13.722;2023-03-26T00:24:04;8.80;99.90
48264;DHT22;34086;51.076;13.722;2023-03-26T00:25:06;8.80;99.90
48264;DHT22;34086;51.076;13.722;2023-03-26T00:26:07;8.90;99.90
48264;DHT22;34086;51.076;13.722;2023-03-26T00:27:12;8.90;99.90
48264;DHT22;34086;51.076;13.722;2023-03-26T00:28:13;8.90;99.90
48264;DHT22;34086;51.076;13.722;2023-03-26T00:29:16;8.90;99.90
48264;DHT22;34086;51.076;13.722;2023-03-26T00:30:18;9.00;99.90
48264;DHT22;34086;51.076;13.722;2023-03-26T00:31:19;9.00;99.90
48264;DHT22;34086;51.076;13.722;2023-03-26T00:32:20;9.00;99.90
48264;DHT22;34086;51.076;13.722;2023-03-26T00:33:21;9.00;99.90
48264;DHT22;34086;51.076;13.722;2023-03-26T00:34:21;9.00;99.90
48264;DHT22;34086;51.076;13.722;2023-03-26T00:35:22;9.00;99.90
48264;DHT22;34086;51.076;13.722;2023-03-26T00:36:24;9.00;99.90
48264;DHT22;34086;51.076;13.722;2023-03-26T00:37:25;9.00;99.90
48264;DHT22;34086;51.076;13.722;2023-03-26T00:38:27;9.00;99.90
48264;DHT22;34086;51.076;13.722;2023-03-26T00:39:28;9.00;99.90
48264;DHT22;34086;51.076;13.722;2023-03-26T00:40:33;9.00;99.90
48264;DHT22;34086;51.076;13.722;2023-03-26T00:41:36;9.00;99.90
48264;DHT22;34086;51.076;13.722;2023-03-26T00:42:42;8.90;99.90
48264;DHT22;34086;51.076;13.722;2023-03-26T00:43:44;8.90;99.90
48264;DHT22;34086;51.076;13.722;2023-03-26T00:44:47;8.90;99.90
48264;DHT22;34086;51.076;13.722;2023-03-26T00:45:52;8.90;99.90
48264;DHT22;34086;51.076;13.722;2023-03-26T00:46:53;8.90;99.90
48264;DHT22;34086;51.076;13.722;2023-03-26T00:47:54;8.90;99.90
48264;DHT22;34086;51.076;13.722;2023-03-26T00:48:54;8.90;99.90
48264;DHT22;34086;51.076;13.722;2023-03-26T00:49:58;8.90;99.90
48264;DHT22;34086;51.076;13.722;2023-03-26T00:50:59;8.90;99.90
48264;DHT22;34086;51.076;13.722;2023-03-26T00:52:00;8.90;99.90
48264;DHT22;34086;51.076;13.722;2023-03-26T00:53:02;8.90;99.90
48264;DHT22;34086;51.076;13.722;2023-03-26T00:54:03;8.90;99.90
48264;DHT22;34086;51.076;13.722;2023-03-26T00:55:03;9.00;99.90
48264;DHT22;34086;51.076;13.722;2023-03-26T00:56:05;8.90;99.90
48264;DHT22;34086;51.076;13.722;2023-03-26T00:57:06;8.90;99.90
48264;DHT22;34086;51.076;13.722;2023-03-26T00:58:10;8.90;99.90
48264;DHT22;34086;51.076;13.722;2023-03-26T00:59:11;8.90;99.90
48264;DHT22;34086;51.076;13.722;2023-03-26T01:00:12;8.90;99.90
48264;DHT22;34086;51.076;13.722;2023-03-26T01:01:21;8.90;99.90
48264;DHT22;34086;51.076;13.722;2023-03-26T01:02:26;8.90;99.90
48264;DHT22;34086;51.076;13.722;2023-03-26T01:03:31;8.90;99.90
48264;DHT22;34086;51.076;13.722;2023-03-26T01:04:35;8.90;99.90
48264;DHT22;34086;51.076;13.722;2023-03-26T01:05:45;8.90;99.90
48264;DHT22;34086;51.076;13.722;2023-03-26T01:06:45;8.90;99.90
48264;DHT22;34086;51.076;13.722;2023-03-26T01:07:46;8.90;99.90
48264;DHT22;34086;51.076;13.722;2023-03-26T01:08:49;8.90;99.90
48264;DHT22;34086;51.076;13.722;2023-03-26T01:09:54;8.90;99.90
48264;DHT22;34086;51.076;13.722;2023-03-26T01:10:57;8.90;99.90
48264;DHT22;34086;51.076;13.722;2023-03-26T01:12:06;8.90;99.90
48264;DHT22;34086;51.076;13.722;2023-03-26T01:13:08;8.90;99.90
48264;DHT22;34086;51.076;13.722;2023-03-26T01:14:22;8.90;99.90
48264;DHT22;34086;51.076;13.722;2023-03-26T01:15:25;8.90;99.90
48264;DHT22;34086;51.076;13.722;2023-03-26T01:16:57;8.90;99.90
48264;DHT22;34086;51.076;13.722;2023-03-26T01:17:58;8.90;99.90
48264;DHT22;34086;51.076;13.722;2023-03-26T01:18:59;8.90;99.90
48264;DHT22;34086;51.076;13.722;2023-03-26T01:20:14;8.90;99.90
48264;DHT22;34086;51.076;13.722;2023-03-26T01:21:21;8.80;99.90
48264;DHT22;34086;51.076;13.722;2023-03-26T01:22:27;8.80;99.90
48264;DHT22;34086;51.076;13.722;2023-03-26T01:23:36;8.80;99.90
48264;DHT22;34086;51.076;13.722;2023-03-26T01:24:39;8.80;99.90
48264;DHT22;34086;51.076;13.722;2023-03-26T01:25:43;8.80;99.90
48264;DHT22;34086;51.076;13.722;2023-03-26T01:27:03;8.80;99.90
48264;DHT22;34086;51.076;13.722;2023-03-26T01:28:07;8.80;99.90
48264;DHT22;34086;51.076;13.722;2023-03-26T01:29:20;8.80;99.90
48264;DHT22;34086;51.076;13.722;2023-03-26T01:31:53;8.80;99.90
48264;DHT22;34086;51.076;13.722;2023-03-26T01:34:59;8.70;99.90
48264;DHT22;34086;51.076;13.722;2023-03-26T01:36:08;8.70;99.90
48264;DHT22;34086;51.076;13.722;2023-03-26T01:37:34;8.70;99.90
48264;DHT22;34086;51.076;13.722;2023-03-26T01:39:15;8.70;99.90
48264;DHT22;34086;51.076;13.722;2023-03-26T01:40:33;8.70;99.90
48264;DHT22;34086;51.076;13.722;2023-03-26T01:41:50;8.70;99.90
48264;DHT22;34086;51.076;13.722;2023-03-26T01:43:03;8.70;99.90
48264;DHT22;34086;51.076;13.722;2023-03-26T01:45:29;8.70;99.90
48264;DHT22;34086;51.076;13.722;2023-03-26T01:46:31;8.80;99.90
48264;DHT22;34086;51.076;13.722;2023-03-26T01:47:37;8.70;99.90
48264;DHT22;34086;51.076;13.722;2023-03-26T01:48:41;8.70;99.90
48264;DHT22;34086;51.076;13.722;2023-03-26T01:49:43;8.70;99.90
48264;DHT22;34086;51.076;13.722;2023-03-26T01:50:43;8.70;99.90
48264;DHT22;34086;51.076;13.722;2023-03-26T01:51:44;8.70;99.90
48264;DHT22;34086;51.076;13.722;2023-03-26T01:52:44;8.70;99.90
48264;DHT22;34086;51.076;13.722;2023-03-26T01:53:46;8.70;99.90
48264;DHT22;34086;51.076;13.722;2023-03-26T01:54:47;8.60;99.90
48264;DHT22;34086;51.076;13.722;2023-03-26T01:59:13;8.50;99.90
48264;DHT22;34086;51.076;13.722;2023-03-26T02:00:27;8.50;99.90
48264;DHT22;34086;51.076;13.722;2023-03-26T02:01:30;8.50;99.90
48264;DHT22;34086;51.076;13.722;2023-03-26T02:02:44;8.40;99.90
48264;DHT22;34086;51.076;13.722;2023-03-26T02:03:59;8.50;99.90
48264;DHT22;34086;51.076;13.722;2023-03-26T02:05:14;8.40;99.90
48264;DHT22;34086;51.076;13.722;2023-03-26T02:06:22;8.40;99.90
48264;DHT22;34086;51.076;13.722;2023-03-26T02:07:46;8.40;99.90
48264;DHT22;34086;51.076;13.722;2023-03-26T02:08:58;8.30;99.90
48264;DHT22;34086;51.076;13.722;2023-03-26T02:10:07;8.40;99.90
48264;DHT22;34086;51.076;13.722;2023-03-26T02:11:13;8.30;99.90
48264;DHT22;34086;51.076;13.722;2023-03-26T02:12:15;8.30;99.90
48264;DHT22;34086;51.076;13.722;2023-03-26T02:13:16;8.30;99.90
48264;DHT22;34086;51.076;13.722;2023-03-26T02:14:17;8.30;99.90
48264;DHT22;34086;51.076;13.722;2023-03-26T02:15:18;8.30;99.90
48264;DHT22;34086;51.076;13.722;2023-03-26T02:16:19;8.30;99.90
48264;DHT22;34086;51.076;13.722;2023-03-26T02:17:21;8.20;99.90
48264;DHT22;34086;51.076;13.722;2023-03-26T02:18:23;8.20;99.90
48264;DHT22;34086;51.076;13.722;2023-03-26T02:19:24;8.30;99.90
48264;DHT22;34086;51.076;13.722;2023-03-26T02:20:25;8.20;99.90
48264;DHT22;34086;51.076;13.722;2023-03-26T02:21:29;8.20;99.90
48264;DHT22;34086;51.076;13.722;2023-03-26T02:22:33;8.20;99.90
48264;DHT22;34086;51.076;13.722;2023-03-26T02:23:42;8.20;99.90
48264;DHT22;34086;51.076;13.722;2023-03-26T02:24:46;8.20;99.90
48264;DHT22;34086;51.076;13.722;2023-03-26T02:25:46;8.20;99.90
48264;DHT22;34086;51.076;13.722;2023-03-26T02:26:47;8.20;99.90
48264;DHT22;34086;51.076;13.722;2023-03-26T02:27:49;8.20;99.90
48264;DHT22;34086;51.076;13.722;2023-03-26T02:28:51;8.20;99.90
48264;DHT22;34086;51.076;13.722;2023-03-26T02:29:52;8.20;99.90
48264;DHT22;34086;51.076;13.722;2023-03-26T02:30:55;8.20;99.90
48264;DHT22;34086;51.076;13.722;2023-03-26T02:31:58;8.20;99.90
48264;DHT22;34086;51.076;13.722;2023-03-26T02:32:59;8.20;99.90
48264;DHT22;34086;51.076;13.722;2023-03-26T02:34:04;8.20;99.90
48264;DHT22;34086;51.076;13.722;2023-03-26T02:35:08;8.20;99.90
48264;DHT22;34086;51.076;13.722;2023-03-26T02:36:09;8.20;99.90
48264;DHT22;34086;51.076;13.722;2023-03-26T02:37:16;8.20;99.90
48264;DHT22;34086;51.076;13.722;2023-03-26T02:38:19;8.20;99.90
48264;DHT22;34086;51.076;13.722;2023-03-26T02:39:20;8.20;99.90
48264;DHT22;34086;51.076;13.722;2023-03-26T02:40:29;8.20;99.90
48264;DHT22;34086;51.076;13.722;2023-03-26T02:41:31;8.20;99.90
48264;DHT22;34086;51.076;13.722;2023-03-26T02:42:39;8.10;99.90
48264;DHT22;34086;51.076;13.722;2023-03-26T02:43:40;8.10;99.90
48264;DHT22;34086;51.076;13.722;2023-03-26T02:44:44;8.10;99.90
48264;DHT22;34086;51.076;13.722;2023-03-26T02:46:05;8.10;99.90
48264;DHT22;34086;51.076;13.722;2023-03-26T02:47:32;8.10;99.90
48264;DHT22;34086;51.076;13.722;2023-03-26T02:49:05;8.10;99.90
48264;DHT22;34086;51.076;13.722;2023-03-26T02:50:06;8.10;99.90
48264;DHT22;34086;51.076;13.722;2023-03-26T02:51:26;8.10;99.90
48264;DHT22;34086;51.076;13.722;2023-03-26T02:52:42;8.10;99.90
48264;DHT22;34086;51.076;13.722;2023-03-26T02:53:44;8.10;99.90
48264;DHT22;34086;51.076;13.722;2023-03-26T02:55:03;8.10;99.90
48264;DHT22;34086;51.076;13.722;2023-03-26T02:56:05;8.10;99.90
48264;DHT22;34086;51.076;13.722;2023-03-26T02:57:14;8.10;99.90
48264;DHT22;34086;51.076;13.722;2023-03-26T02:58:33;8.20;99.90
48264;DHT22;34086;51.076;13.722;2023-03-26T02:59:34;8.20;99.90
48264;DHT22;34086;51.076;13.722;2023-03-26T03:00:57;8.20;99.90
48264;DHT22;34086;51.076;13.722;2023-03-26T03:02:04;8.20;99.90
48264;DHT22;34086;51.076;13.722;2023-03-26T03:03:06;8.20;99.90
48264;DHT22;34086;51.076;13.722;2023-03-26T03:04:27;8.20;99.90
48264;DHT22;34086;51.076;13.722;2023-03-26T03:05:28;8.20;99.90
48264;DHT22;34086;51.076;13.722;2023-03-26T03:06:46;8.20;99.90
48264;DHT22;34086;51.076;13.722;2023-03-26T03:07:47;8.30;99.90
48264;DHT22;34086;51.076;13.722;2023-03-26T03:08:47;8.20;99.90
48264;DHT22;34086;51.076;13.722;2023-03-26T03:09:48;8.20;99.90
48264;DHT22;34086;51.076;13.722;2023-03-26T03:11:22;8.20;99.90
48264;DHT22;34086;51.076;13.722;2023-03-26T03:12:25;8.30;99.90
48264;DHT22;34086;51.076;13.722;2023-03-26T03:13:27;8.20;99.90
48264;DHT22;34086;51.076;13.722;2023-03-26T03:14:28;8.30;99.90
48264;DHT22;34086;51.076;13.722;2023-03-26T03:15:28;8.20;99.90
48264;DHT22;34086;51.076;13.722;2023-03-26T03:16:29;8.30;99.90
48264;DHT22;34086;51.076;13.722;2023-03-26T03:17:33;8.20;99.90
48264;DHT22;34086;51.076;13.722;2023-03-26T03:18:34;8.30;99.90
48264;DHT22;34086;51.076;13.722;2023-03-26T03:19:35;8.20;99.90
48264;DHT22;34086;51.076;13.722;2023-03-26T03:20:37;8.20;99.90
48264;DHT22;34086;51.076;13.722;2023-03-26T03:21:39;8.20;99.90
48264;DHT22;34086;51.076;13.722;2023-03-26T03:22:41;8.20;99.90
48264;DHT22;34086;51.076;13.722;2023-03-26T03:23:42;8.20;99.90
48264;DHT22;34086;51.076;13.722;2023-03-26T03:24:46;8.20;99.90
48264;DHT22;34086;51.076;13.722;2023-03-26T03:25:47;8.20;99.90
48264;DHT22;34086;51.076;13.722;2023-03-26T03:26:50;8.20;99.90
48264;DHT22;34086;51.076;13.722;2023-03-26T03:28:08;8.20;99.90
48264;DHT22;34086;51.076;13.722;2023-03-26T03:29:09;8.10;99.90
48264;DHT22;34086;51.076;13.722;2023-03-26T03:30:11;8.10;99.90
48264;DHT22;34086;51.076;13.722;2023-03-26T03:31:32;8.10;99.90
48264;DHT22;34086;51.076;13.722;2023-03-26T03:32:37;8.10;99.90
48264;DHT22;34086;51.076;13.722;2023-03-26T03:33:38;8.10;99.90
48264;DHT22;34086;51.076;13.722;2023-03-26T03:34:42;8.10;99.90
48264;DHT22;34086;51.076;13.722;2023-03-26T03:35:42;8.10;99.90
48264;DHT22;34086;51.076;13.722;2023-03-26T03:36:45;8.10;99.90
48264;DHT22;34086;51.076;13.722;2023-03-26T03:38:01;8.10;99.90
48264;DHT22;34086;51.076;13.722;2023-03-26T03:39:06;8.10;99.90
48264;DHT22;34086;51.076;13.722;2023-03-26T03:40:08;8.10;99.90
48264;DHT22;34086;51.076;13.722;2023-03-26T03:41:10;8.10;99.90
48264;DHT22;34086;51.076;13.722;2023-03-26T03:42:14;8.10;99.90
48264;DHT22;34086;51.076;13.722;2023-03-26T03:43:15;8.00;99.90
48264;DHT22;34086;51.076;13.722;2023-03-26T03:44:28;8.00;99.90
48264;DHT22;34086;51.076;13.722;2023-03-26T03:45:29;8.10;99.90
48264;DHT22;34086;51.076;13.722;2023-03-26T03:46:42;8.00;99.90
48264;DHT22;34086;51.076;13.722;2023-03-26T03:47:43;8.00;99.90
48264;DHT22;34086;51.076;13.722;2023-03-26T03:48:44;8.00;99.90
48264;DHT22;34086;51.076;13.722;2023-03-26T03:49:50;8.00;99.90
48264;DHT22;34086;51.076;13.722;2023-03-26T03:50:51;7.90;99.90
48264;DHT22;34086;51.076;13.722;2023-03-26T03:51:58;7.90;99.90
48264;DHT22;34086;51.076;13.722;2023-03-26T03:53:05;8.00;99.90
48264;DHT22;34086;51.076;13.722;2023-03-26T03:54:06;8.00;99.90
48264;DHT22;34086;51.076;13.722;2023-03-26T03:55:27;8.00;99.90
48264;DHT22;34086;51.076;13.722;2023-03-26T03:56:29;7.90;99.90
48264;DHT22;34086;51.076;13.722;2023-03-26T03:57:50;8.00;99.90
48264;DHT22;34086;51.076;13.722;2023-03-26T03:58:53;7.90;99.90
48264;DHT22;34086;51.076;13.722;2023-03-26T04:00:03;8.00;99.90
48264;DHT22;34086;51.076;13.722;2023-03-26T04:01:15;7.90;99.90
48264;DHT22;34086;51.076;13.722;2023-03-26T04:02:32;7.90;99.90
48264;DHT22;34086;51.076;13.722;2023-03-26T04:03:37;7.90;99.90
48264;DHT22;34086;51.076;13.722;2023-03-26T04:04:42;7.90;99.90
48264;DHT22;34086;51.076;13.722;2023-03-26T04:05:47;7.80;99.90
48264;DHT22;34086;51.076;13.722;2023-03-26T04:06:55;7.80;99.90
48264;DHT22;34086;51.076;13.722;2023-03-26T04:07:57;7.80;99.90
48264;DHT22;34086;51.076;13.722;2023-03-26T04:09:02;7.80;99.90
48264;DHT22;34086;51.076;13.722;2023-03-26T04:10:05;7.80;99.90
48264;DHT22;34086;51.076;13.722;2023-03-26T04:11:26;7.80;99.90
48264;DHT22;34086;51.076;13.722;2023-03-26T04:12:44;7.70;99.90
48264;DHT22;34086;51.076;13.722;2023-03-26T04:13:49;7.70;99.90
48264;DHT22;34086;51.076;13.722;2023-03-26T04:15:14;7.70;99.90
48264;DHT22;34086;51.076;13.722;2023-03-26T04:16:15;7.80;99.90
48264;DHT22;34086;51.076;13.722;2023-03-26T04:17:17;7.80;99.90
48264;DHT22;34086;51.076;13.722;2023-03-26T04:18:21;7.80;99.90
48264;DHT22;34086;51.076;13.722;2023-03-26T04:19:22;7.80;99.90
48264;DHT22;34086;51.076;13.722;2023-03-26T04:20:24;7.80;99.90
48264;DHT22;34086;51.076;13.722;2023-03-26T04:21:26;7.80;99.90
48264;DHT22;34086;51.076;13.722;2023-03-26T04:22:30;7.80;99.90
48264;DHT22;34086;51.076;13.722;2023-03-26T04:23:38;7.90;99.90
48264;DHT22;34086;51.076;13.722;2023-03-26T04:25:12;7.90;99.90
48264;DHT22;34086;51.076;13.722;2023-03-26T04:26:22;7.90;99.90
48264;DHT22;34086;51.076;13.722;2023-03-26T04:27:40;7.90;99.90
48264;DHT22;34086;51.076;13.722;2023-03-26T04:28:53;7.90;99.90
48264;DHT22;34086;51.076;13.722;2023-03-26T04:30:00;7.90;99.90
48264;DHT22;34086;51.076;13.722;2023-03-26T04:31:02;7.90;99.90
48264;DHT22;34086;51.076;13.722;2023-03-26T04:32:23;7.90;99.90
48264;DHT22;34086;51.076;13.722;2023-03-26T04:33:31;7.90;99.90
48264;DHT22;34086;51.076;13.722;2023-03-26T04:34:33;8.00;99.90
48264;DHT22;34086;51.076;13.722;2023-03-26T04:35:51;8.00;99.90
48264;DHT22;34086;51.076;13.722;2023-03-26T04:36:53;8.00;99.90
48264;DHT22;34086;51.076;13.722;2023-03-26T04:37:56;8.10;99.90
48264;DHT22;34086;51.076;13.722;2023-03-26T04:39:06;8.10;99.90
48264;DHT22;34086;51.076;13.722;2023-03-26T04:40:32;8.10;99.90
48264;DHT22;34086;51.076;13.722;2023-03-26T04:41:45;8.10;99.90
48264;DHT22;34086;51.076;13.722;2023-03-26T04:42:51;8.10;99.90
48264;DHT22;34086;51.076;13.722;2023-03-26T04:44:14;8.20;99.90
48264;DHT22;34086;51.076;13.722;2023-03-26T04:45:24;8.20;99.90
48264;DHT22;34086;51.076;13.722;2023-03-26T04:46:30;8.20;99.90
48264;DHT22;34086;51.076;13.722;2023-03-26T04:47:42;8.20;99.90
48264;DHT22;34086;51.076;13.722;2023-03-26T04:48:45;8.20;99.90
48264;DHT22;34086;51.076;13.722;2023-03-26T04:49:47;8.20;99.90
48264;DHT22;34086;51.076;13.722;2023-03-26T04:50:49;8.20;99.90
48264;DHT22;34086;51.076;13.722;2023-03-26T04:51:52;8.20;99.90
48264;DHT22;34086;51.076;13.722;2023-03-26T04:53:32;8.20;99.90
48264;DHT22;34086;51.076;13.722;2023-03-26T04:54:58;8.20;99.90
48264;DHT22;34086;51.076;13.722;2023-03-26T04:56:12;8.20;99.90
48264;DHT22;34086;51.076;13.722;2023-03-26T04:57:38;8.20;99.90
48264;DHT22;34086;51.076;13.722;2023-03-26T04:58:48;8.20;99.90
48264;DHT22;34086;51.076;13.722;2023-03-26T04:59:50;8.20;99.90
48264;DHT22;34086;51.076;13.722;2023-03-26T05:00:51;8.20;99.90
48264;DHT22;34086;51.076;13.722;2023-03-26T05:01:53;8.20;99.90
48264;DHT22;34086;51.076;13.722;2023-03-26T05:02:56;8.20;99.90
48264;DHT22;34086;51.076;13.722;2023-03-26T05:03:58;8.20;99.90
48264;DHT22;34086;51.076;13.722;2023-03-26T05:05:00;8.20;99.90
48264;DHT22;34086;51.076;13.722;2023-03-26T05:06:04;8.20;99.90
48264;DHT22;34086;51.076;13.722;2023-03-26T05:07:05;8.20;99.90
48264;DHT22;34086;51.076;13.722;2023-03-26T05:08:13;8.20;99.90
48264;DHT22;34086;51.076;13.722;2023-03-26T05:09:14;8.20;99.90
48264;DHT22;34086;51.076;13.722;2023-03-26T05:10:35;8.20;99.90
48264;DHT22;34086;51.076;13.722;2023-03-26T05:11:45;8.20;99.90
48264;DHT22;34086;51.076;13.722;2023-03-26T05:12:48;8.20;99.90
48264;DHT22;34086;51.076;13.722;2023-03-26T05:13:56;8.20;99.90
48264;DHT22;34086;51.076;13.722;2023-03-26T05:14:57;8.30;99.90
48264;DHT22;34086;51.076;13.722;2023-03-26T05:16:13;8.30;99.90
48264;DHT22;34086;51.076;13.722;2023-03-26T05:17:19;8.30;99.90
48264;DHT22;34086;51.076;13.722;2023-03-26T05:18:22;8.30;99.90
48264;DHT22;34086;51.076;13.722;2023-03-26T05:19:27;8.30;99.90
48264;DHT22;34086;51.076;13.722;2023-03-26T05:20:29;8.30;99.90
48264;DHT22;34086;51.076;13.722;2023-03-26T05:21:30;8.30;99.90
48264;DHT22;34086;51.076;13.722;2023-03-26T05:22:30;8.30;99.90
48264;DHT22;34086;51.076;13.722;2023-03-26T05:23:51;8.30;99.90
48264;DHT22;34086;51.076;13.722;2023-03-26T05:24:53;8.40;99.90
48264;DHT22;34086;51.076;13.722;2023-03-26T05:25:53;8.30;99.90
48264;DHT22;34086;51.076;13.722;2023-03-26T05:26:57;8.30;99.90
48264;DHT22;34086;51.076;13.722;2023-03-26T05:27:59;8.30;99.90
48264;DHT22;34086;51.076;13.722;2023-03-26T05:29:07;8.30;99.90
48264;DHT22;34086;51.076;13.722;2023-03-26T05:30:14;8.30;99.90
48264;DHT22;34086;51.076;13.722;2023-03-26T05:31:19;8.30;99.90
48264;DHT22;34086;51.076;13.722;2023-03-26T05:32:22;8.20;99.90
48264;DHT22;34086;51.076;13.722;2023-03-26T05:33:25;8.20;99.90
48264;DHT22;34086;51.076;13.722;2023-03-26T05:34:40;8.20;99.90
48264;DHT22;34086;51.076;13.722;2023-03-26T05:35:40;8.20;99.90
48264;DHT22;34086;51.076;13.722;2023-03-26T05:36:43;8.20;99.90
48264;DHT22;34086;51.076;13.722;2023-03-26T05:38:03;8.20;99.90
48264;DHT22;34086;51.076;13.722;2023-03-26T05:39:05;8.20;99.90
48264;DHT22;34086;51.076;13.722;2023-03-26T05:40:24;8.10;99.90
48264;DHT22;34086;51.076;13.722;2023-03-26T05:41:29;8.10;99.90
48264;DHT22;34086;51.076;13.722;2023-03-26T05:42:29;8.10;99.90
48264;DHT22;34086;51.076;13.722;2023-03-26T05:43:42;8.00;99.90
48264;DHT22;34086;51.076;13.722;2023-03-26T05:44:51;8.00;99.90
48264;DHT22;34086;51.076;13.722;2023-03-26T05:45:58;8.00;99.90
48264;DHT22;34086;51.076;13.722;2023-03-26T05:47:02;8.00;99.90
48264;DHT22;34086;51.076;13.722;2023-03-26T05:48:03;8.00;99.90
48264;DHT22;34086;51.076;13.722;2023-03-26T05:49:04;8.10;99.90
48264;DHT22;34086;51.076;13.722;2023-03-26T05:50:08;8.00;99.90
48264;DHT22;34086;51.076;13.722;2023-03-26T05:51:12;8.10;99.90
48264;DHT22;34086;51.076;13.722;2023-03-26T05:52:19;8.10;99.90
48264;DHT22;34086;51.076;13.722;2023-03-26T05:53:40;8.10;99.90
48264;DHT22;34086;51.076;13.722;2023-03-26T05:55:04;8.10;99.90
48264;DHT22;34086;51.076;13.722;2023-03-26T05:56:24;8.10;99.90
48264;DHT22;34086;51.076;13.722;2023-03-26T05:57:43;8.10;99.90
48264;DHT22;34086;51.076;13.722;2023-03-26T05:59:10;8.10;99.90
48264;DHT22;34086;51.076;13.722;2023-03-26T06:00:29;8.10;99.90
48264;DHT22;34086;51.076;13.722;2023-03-26T06:01:30;8.10;99.90
48264;DHT22;34086;51.076;13.722;2023-03-26T06:02:59;8.10;99.90
48264;DHT22;34086;51.076;13.722;2023-03-26T06:04:20;8.10;99.90
48264;DHT22;34086;51.076;13.722;2023-03-26T06:05:43;8.10;99.90
48264;DHT22;34086;51.076;13.722;2023-03-26T06:06:52;8.10;99.90
48264;DHT22;34086;51.076;13.722;2023-03-26T06:07:53;8.10;99.90
48264;DHT22;34086;51.076;13.722;2023-03-26T06:08:54;8.10;99.90
48264;DHT22;34086;51.076;13.722;2023-03-26T06:09:55;8.20;99.90
48264;DHT22;34086;51.076;13.722;2023-03-26T06:11:00;8.20;99.90
48264;DHT22;34086;51.076;13.722;2023-03-26T06:12:02;8.30;99.90
48264;DHT22;34086;51.076;13.722;2023-03-26T06:13:05;8.30;99.90
48264;DHT22;34086;51.076;13.722;2023-03-26T06:14:08;8.40;99.90
48264;DHT22;34086;51.076;13.722;2023-03-26T06:15:12;8.40;99.90
48264;DHT22;34086;51.076;13.722;2023-03-26T06:16:28;8.50;99.90
48264;DHT22;34086;51.076;13.722;2023-03-26T06:17:47;8.50;99.90
48264;DHT22;34086;51.076;13.722;2023-03-26T06:19:08;8.60;99.90
48264;DHT22;34086;51.076;13.722;2023-03-26T06:20:32;8.60;99.90
48264;DHT22;34086;51.076;13.722;2023-03-26T06:21:34;8.60;99.90
48264;DHT22;34086;51.076;13.722;2023-03-26T06:22:43;8.60;99.90
48264;DHT22;34086;51.076;13.722;2023-03-26T06:23:55;8.70;99.90
48264;DHT22;34086;51.076;13.722;2023-03-26T06:25:22;8.70;99.90
48264;DHT22;34086;51.076;13.722;2023-03-26T06:26:38;8.80;99.90
48264;DHT22;34086;51.076;13.722;2023-03-26T06:27:59;8.80;99.90
48264;DHT22;34086;51.076;13.722;2023-03-26T06:29:25;8.80;99.90
48264;DHT22;34086;51.076;13.722;2023-03-26T06:30:45;8.80;99.90
48264;DHT22;34086;51.076;13.722;2023-03-26T06:32:04;8.80;99.90
48264;DHT22;34086;51.076;13.722;2023-03-26T06:33:13;8.80;99.90
48264;DHT22;34086;51.076;13.722;2023-03-26T06:34:21;8.80;99.90
48264;DHT22;34086;51.076;13.722;2023-03-26T06:35:22;8.80;99.90
48264;DHT22;34086;51.076;13.722;2023-03-26T06:36:23;8.80;99.90
48264;DHT22;34086;51.076;13.722;2023-03-26T06:37:24;8.80;99.90
48264;DHT22;34086;51.076;13.722;2023-03-26T06:38:30;8.90;99.90
48264;DHT22;34086;51.076;13.722;2023-03-26T06:39:34;8.90;99.90
48264;DHT22;34086;51.076;13.722;2023-03-26T06:41:02;8.90;99.90
48264;DHT22;34086;51.076;13.722;2023-03-26T06:42:17;8.90;99.90
48264;DHT22;34086;51.076;13.722;2023-03-26T06:43:47;8.90;99.90
48264;DHT22;34086;51.076;13.722;2023-03-26T06:45:08;8.90;99.90
48264;DHT22;34086;51.076;13.722;2023-03-26T06:46:09;8.90;99.90
48264;DHT22;34086;51.076;13.722;2023-03-26T06:47:28;8.90;99.90
48264;DHT22;34086;51.076;13.722;2023-03-26T06:48:47;8.90;99.90
48264;DHT22;34086;51.076;13.722;2023-03-26T06:50:12;9.00;99.90
48264;DHT22;34086;51.076;13.722;2023-03-26T06:51:31;9.00;99.90
48264;DHT22;34086;51.076;13.722;2023-03-26T06:52:55;9.00;99.90
48264;DHT22;34086;51.076;13.722;2023-03-26T06:54:05;9.00;99.90
48264;DHT22;34086;51.076;13.722;2023-03-26T06:55:35;9.10;99.90
48264;DHT22;34086;51.076;13.722;2023-03-26T06:56:58;9.20;99.90
48264;DHT22;34086;51.076;13.722;2023-03-26T06:58:17;9.20;99.90
48264;DHT22;34086;51.076;13.722;2023-03-26T06:59:38;9.20;99.90
48264;DHT22;34086;51.076;13.722;2023-03-26T07:00:57;9.30;99.90
48264;DHT22;34086;51.076;13.722;2023-03-26T07:02:16;9.40;99.90
48264;DHT22;34086;51.076;13.722;2023-03-26T07:03:35;9.50;99.90
48264;DHT22;34086;51.076;13.722;2023-03-26T07:04:54;9.50;99.90
48264;DHT22;34086;51.076;13.722;2023-03-26T07:06:13;9.60;99.90
48264;DHT22;34086;51.076;13.722;2023-03-26T07:07:32;9.70;99.90
48264;DHT22;34086;51.076;13.722;2023-03-26T07:08:51;9.70;99.90
48264;DHT22;34086;51.076;13.722;2023-03-26T07:10:10;9.70;99.90
48264;DHT22;34086;51.076;13.722;2023-03-26T07:11:16;9.70;99.90
48264;DHT22;34086;51.076;13.722;2023-03-26T07:12:44;9.70;99.90
48264;DHT22;34086;51.076;13.722;2023-03-26T07:14:03;9.70;99.90
48264;DHT22;34086;51.076;13.722;2023-03-26T07:15:30;9.70;99.90
48264;DHT22;34086;51.076;13.722;2023-03-26T07:16:42;9.70;99.90